Time;durP1;ratioP1;P1;durP2;ratioP2;P2;SDS_P1;SDS_P2;PMS_P1;PMS_P2;Temp;Humidity;BMP_temperature;BMP_pressure;BME280_temperature;BME280_humidity;BME280_pressure;Samples;Min_cycle;Max_cycle;Signal;HPM_P1;HPM_P2
2023/10/30 00:00:19;;;;;;;4.10;2.37;;;14.70;99.90;;;;;;4943765;28;20437;-67
2023/10/30 00:02:47;;;;;;;4.20;2.00;;;14.70;99.90;;;;;;4943850;28;20529;-66
2023/10/30 00:05:16;;;;;;;3.20;1.90;;;14.70;99.90;;;;;;4943380;28;20472;-67
2023/10/30 00:07:43;;;;;;;3.60;2.00;;;14.70;99.90;;;;;;4942249;28;20955;-67
2023/10/30 00:10:11;;;;;;;4.10;1.90;;;14.70;99.90;;;;;;4925170;28;20457;-67
2023/10/30 00:12:40;;;;;;;4.20;1.87;;;14.70;99.90;;;;;;4935190;28;20474;-67
2023/10/30 00:15:06;;;;;;;3.13;1.90;;;14.70;99.90;;;;;;4942285;28;20559;-67
2023/10/30 00:17:35;;;;;;;5.63;2.03;;;14.70;99.90;;;;;;4951923;28;21252;-67
2023/10/30 00:20:05;;;;;;;3.33;2.00;;;14.70;99.90;;;;;;4942176;28;20469;-67
2023/10/30 00:22:36;;;;;;;3.23;1.90;;;14.70;99.90;;;;;;4934853;28;20467;-67
2023/10/30 00:25:07;;;;;;;3.33;1.80;;;14.70;99.90;;;;;;4960038;28;20488;-67
2023/10/30 00:27:33;;;;;;;4.67;1.73;;;14.70;99.90;;;;;;4959834;28;20510;-67
2023/10/30 00:30:03;;;;;;;3.00;1.63;;;14.70;99.90;;;;;;4926633;28;20528;-67
2023/10/30 00:32:32;;;;;;;3.87;1.87;;;14.70;99.90;;;;;;4942727;28;20553;-67
2023/10/30 00:34:57;;;;;;;4.07;2.50;;;14.70;99.90;;;;;;4910083;28;20552;-67
2023/10/30 00:37:24;;;;;;;4.93;2.20;;;14.70;99.90;;;;;;4941160;28;20451;-67
2023/10/30 00:39:52;;;;;;;4.50;2.07;;;14.70;99.90;;;;;;4959741;28;21212;-67
2023/10/30 00:42:18;;;;;;;4.57;2.23;;;14.70;99.90;;;;;;4925811;28;21300;-67
2023/10/30 00:44:46;;;;;;;2.30;2.00;;;14.70;99.90;;;;;;4942733;28;20436;-66
2023/10/30 00:47:12;;;;;;;3.60;2.00;;;14.70;99.90;;;;;;4926458;28;20461;-67
2023/10/30 00:49:41;;;;;;;5.90;2.60;;;14.70;99.90;;;;;;4959391;28;21403;-67
2023/10/30 00:52:07;;;;;;;5.90;2.00;;;14.70;99.90;;;;;;4959045;28;20441;-67
2023/10/30 00:54:33;;;;;;;5.37;2.10;;;14.70;99.90;;;;;;4941772;28;20226;-67
2023/10/30 00:56:59;;;;;;;3.83;2.27;;;14.70;99.90;;;;;;4941742;28;20513;-67
2023/10/30 00:59:26;;;;;;;2.70;1.90;;;14.70;99.90;;;;;;4941574;28;20512;-67
2023/10/30 01:01:54;;;;;;;4.10;2.17;;;14.70;99.90;;;;;;4925955;28;20281;-67
2023/10/30 01:04:22;;;;;;;5.97;2.40;;;14.60;99.90;;;;;;4941369;28;20450;-67
2023/10/30 01:06:50;;;;;;;5.00;2.40;;;14.60;99.90;;;;;;4941441;28;20538;-67
2023/10/30 01:09:16;;;;;;;3.93;2.40;;;14.60;99.90;;;;;;4941369;28;20972;-67
2023/10/30 01:11:47;;;;;;;4.97;1.97;;;14.70;99.90;;;;;;4941882;28;20491;-67
2023/10/30 01:14:15;;;;;;;4.10;2.40;;;14.60;99.90;;;;;;4925044;28;20562;-67
2023/10/30 01:16:41;;;;;;;5.57;1.63;;;14.60;99.90;;;;;;4915841;29;20441;-67
2023/10/30 01:19:07;;;;;;;2.53;1.80;;;14.60;99.90;;;;;;4938167;28;20423;-67
2023/10/30 01:21:34;;;;;;;3.10;1.70;;;14.60;99.90;;;;;;4941314;28;20445;-67
2023/10/30 01:24:00;;;;;;;4.90;2.00;;;14.60;99.90;;;;;;4909048;28;20446;-67
2023/10/30 01:26:26;;;;;;;4.67;2.23;;;14.60;99.90;;;;;;4940775;28;20452;-67
2023/10/30 01:28:54;;;;;;;4.90;2.33;;;14.60;99.90;;;;;;4925755;28;20464;-67
2023/10/30 01:31:27;;;;;;;2.30;2.10;;;14.60;99.90;;;;;;4941494;28;20449;-67
2023/10/30 01:33:59;;;;;;;6.03;2.13;;;14.60;99.90;;;;;;4940501;28;20544;-67
2023/10/30 01:36:25;;;;;;;5.37;2.00;;;14.60;99.90;;;;;;4925426;28;20442;-67
2023/10/30 01:38:52;;;;;;;5.90;2.23;;;14.60;99.90;;;;;;4941663;28;21312;-67
2023/10/30 01:41:21;;;;;;;3.67;1.87;;;14.60;99.90;;;;;;4941489;28;20452;-67
2023/10/30 01:43:49;;;;;;;2.83;1.90;;;14.60;99.90;;;;;;4940537;28;20442;-67
2023/10/30 01:46:20;;;;;;;7.33;2.40;;;14.60;99.90;;;;;;4910190;28;20449;-67
2023/10/30 01:48:49;;;;;;;5.57;2.27;;;14.60;99.90;;;;;;4942685;28;20473;-67
2023/10/30 01:51:20;;;;;;;4.37;1.90;;;14.60;99.90;;;;;;4945207;28;20481;-66
2023/10/30 01:53:49;;;;;;;4.00;2.30;;;14.60;99.90;;;;;;4943899;28;20528;-67
2023/10/30 01:56:16;;;;;;;4.20;2.30;;;14.60;99.90;;;;;;4962142;28;20517;-67
2023/10/30 01:58:45;;;;;;;6.20;2.33;;;14.60;99.90;;;;;;4928752;28;20502;-67
2023/10/30 02:01:14;;;;;;;4.00;2.37;;;14.60;99.90;;;;;;4944838;28;20445;-67
2023/10/30 02:03:40;;;;;;;3.50;1.83;;;14.60;99.90;;;;;;4929235;28;20434;-67
2023/10/30 02:06:06;;;;;;;4.23;2.20;;;14.50;99.90;;;;;;4944682;28;20438;-67
2023/10/30 02:08:35;;;;;;;3.17;2.20;;;14.50;99.90;;;;;;4943957;28;21342;-67
2023/10/30 02:11:04;;;;;;;3.43;2.10;;;14.50;99.90;;;;;;4912716;28;20525;-67
2023/10/30 02:13:32;;;;;;;6.90;2.33;;;14.60;99.90;;;;;;4927939;28;20480;-67
2023/10/30 02:16:01;;;;;;;3.57;1.80;;;14.50;99.90;;;;;;4940445;28;20452;-67
2023/10/30 02:18:32;;;;;;;4.30;1.80;;;14.50;99.90;;;;;;4943356;28;20523;-67
2023/10/30 02:20:58;;;;;;;4.47;2.40;;;14.50;99.90;;;;;;4928320;28;20492;-67
2023/10/30 02:23:24;;;;;;;3.40;2.00;;;14.50;99.90;;;;;;4961562;28;20440;-67
2023/10/30 02:25:53;;;;;;;4.37;2.27;;;14.50;99.90;;;;;;4961492;28;20507;-67
2023/10/30 02:28:19;;;;;;;5.57;2.37;;;14.50;99.90;;;;;;4943953;28;20783;-67
2023/10/30 02:30:49;;;;;;;6.60;2.03;;;14.50;99.90;;;;;;4912779;28;20459;-67
2023/10/30 02:33:15;;;;;;;4.60;2.37;;;14.50;99.90;;;;;;4928632;28;20473;-67
2023/10/30 02:35:41;;;;;;;5.47;1.90;;;14.50;99.90;;;;;;4943556;28;20486;-67
2023/10/30 02:38:08;;;;;;;7.03;2.23;;;14.50;99.90;;;;;;4927981;28;20510;-67
2023/10/30 02:40:34;;;;;;;6.47;2.80;;;14.50;99.90;;;;;;4944095;28;20488;-67
2023/10/30 02:43:02;;;;;;;2.60;1.93;;;14.50;99.90;;;;;;4912814;28;20525;-67
2023/10/30 02:45:32;;;;;;;5.27;2.80;;;14.50;99.90;;;;;;4944247;28;20534;-67
2023/10/30 02:47:58;;;;;;;4.13;2.10;;;14.50;99.90;;;;;;4961219;28;20434;-67
2023/10/30 02:50:27;;;;;;;3.43;2.10;;;14.50;99.90;;;;;;4960703;28;20521;-67
2023/10/30 02:52:53;;;;;;;5.70;2.20;;;14.50;99.90;;;;;;4927598;28;20450;-67
2023/10/30 02:55:19;;;;;;;4.20;2.47;;;14.50;99.90;;;;;;4928049;28;20446;-67
2023/10/30 02:57:48;;;;;;;4.93;2.30;;;14.50;99.90;;;;;;4927622;28;20969;-67
2023/10/30 03:00:14;;;;;;;4.33;2.43;;;14.50;99.90;;;;;;4942909;28;20453;-67
2023/10/30 03:02:40;;;;;;;5.57;2.40;;;14.50;99.90;;;;;;4927339;28;20445;-67
2023/10/30 03:05:07;;;;;;;4.90;2.40;;;14.50;99.90;;;;;;4960613;28;21034;-67
2023/10/30 03:07:34;;;;;;;4.03;2.13;;;14.50;99.90;;;;;;4935460;28;21233;-67
2023/10/30 03:10:02;;;;;;;3.93;2.33;;;14.50;99.90;;;;;;4961064;28;20442;-66
2023/10/30 03:12:31;;;;;;;5.70;2.60;;;14.50;99.90;;;;;;4927524;28;20450;-67
2023/10/30 03:15:01;;;;;;;4.27;2.00;;;14.50;99.90;;;;;;4927292;28;20469;-67
2023/10/30 03:17:28;;;;;;;6.30;2.27;;;14.50;99.90;;;;;;4943352;28;20525;-67
2023/10/30 03:19:57;;;;;;;3.43;2.40;;;14.40;99.90;;;;;;4943115;28;20445;-67
2023/10/30 03:22:26;;;;;;;4.53;2.17;;;14.50;99.90;;;;;;4943520;28;20446;-67
2023/10/30 03:24:54;;;;;;;7.77;2.77;;;14.50;99.90;;;;;;4942574;28;20442;-67
2023/10/30 03:27:20;;;;;;;2.83;1.90;;;14.50;99.90;;;;;;4943035;28;20446;-67
2023/10/30 03:29:46;;;;;;;2.40;2.20;;;14.40;99.90;;;;;;4927296;28;20433;-67
2023/10/30 03:32:17;;;;;;;4.03;2.20;;;14.40;99.90;;;;;;4943104;28;20484;-67
2023/10/30 03:34:45;;;;;;;5.63;2.10;;;14.50;99.90;;;;;;4942766;28;21073;-66
2023/10/30 03:37:16;;;;;;;4.63;3.00;;;14.40;99.90;;;;;;4960676;28;20442;-67
2023/10/30 03:39:47;;;;;;;6.13;2.17;;;14.40;99.90;;;;;;4943303;28;20429;-67
2023/10/30 03:42:16;;;;;;;4.80;2.40;;;14.40;99.90;;;;;;4960416;28;20442;-67
2023/10/30 03:44:42;;;;;;;2.97;2.10;;;14.40;99.90;;;;;;4942748;28;21024;-67
2023/10/30 03:47:08;;;;;;;3.80;2.50;;;14.40;99.90;;;;;;4961094;28;20519;-67
2023/10/30 03:49:36;;;;;;;7.37;2.50;;;14.40;99.90;;;;;;4943371;28;20441;-66
2023/10/30 03:52:02;;;;;;;3.57;2.27;;;14.40;99.90;;;;;;4943442;28;20465;-67
2023/10/30 03:54:38;;;;;;;4.30;2.17;;;14.40;99.90;;;;;;4942462;28;20571;-67
2023/10/30 03:57:10;;;;;;;2.43;2.10;;;14.40;99.90;;;;;;4942459;28;20521;-67
2023/10/30 03:59:39;;;;;;;6.70;2.30;;;14.40;99.90;;;;;;4960153;28;20425;-67
2023/10/30 04:02:05;;;;;;;3.30;2.10;;;14.40;99.90;;;;;;4942379;28;21078;-67
2023/10/30 04:04:35;;;;;;;5.53;2.57;;;14.40;99.90;;;;;;4951774;28;20480;-66
2023/10/30 04:07:03;;;;;;;5.00;2.60;;;14.40;99.90;;;;;;4942751;28;21070;-67
2023/10/30 04:09:32;;;;;;;3.07;2.33;;;14.40;99.90;;;;;;4942904;28;20426;-67
2023/10/30 04:12:03;;;;;;;3.53;1.97;;;14.40;99.90;;;;;;4942522;28;20489;-67
2023/10/30 04:14:32;;;;;;;5.03;2.30;;;14.40;99.90;;;;;;4942093;28;20478;-67
2023/10/30 04:17:02;;;;;;;3.10;2.27;;;14.40;99.90;;;;;;4911173;28;20429;-67
2023/10/30 04:19:31;;;;;;;3.40;2.20;;;14.40;99.90;;;;;;4955182;28;20521;-67
2023/10/30 04:22:02;;;;;;;5.63;2.53;;;14.40;99.90;;;;;;4960074;28;20449;-67
2023/10/30 04:24:31;;;;;;;6.47;2.63;;;14.40;99.90;;;;;;4941295;28;20649;-67
2023/10/30 04:27:00;;;;;;;3.40;2.50;;;14.40;99.90;;;;;;4953988;28;20521;-67
2023/10/30 04:29:26;;;;;;;3.97;2.50;;;14.40;99.90;;;;;;4958215;28;20440;-67
2023/10/30 04:31:52;;;;;;;3.97;2.80;;;14.40;99.90;;;;;;4939838;28;20458;-67
2023/10/30 04:34:19;;;;;;;3.13;2.60;;;14.40;99.90;;;;;;4939722;28;20469;-67
2023/10/30 04:36:46;;;;;;;2.60;2.30;;;14.40;99.90;;;;;;4941394;28;20513;-67
2023/10/30 04:39:13;;;;;;;4.10;2.60;;;14.40;99.90;;;;;;4941294;28;20449;-67
2023/10/30 04:41:40;;;;;;;3.40;2.57;;;14.40;99.90;;;;;;4941854;28;20460;-67
2023/10/30 04:44:06;;;;;;;3.10;2.63;;;14.40;99.90;;;;;;4941754;28;20433;-67
2023/10/30 04:46:32;;;;;;;3.53;2.80;;;14.40;99.90;;;;;;4941947;28;20504;-67
2023/10/30 04:49:00;;;;;;;8.17;2.97;;;14.40;99.90;;;;;;4959354;28;20453;-67
2023/10/30 04:51:26;;;;;;;3.13;2.83;;;14.40;99.90;;;;;;4941737;28;21002;-67
2023/10/30 04:53:54;;;;;;;3.00;2.70;;;14.40;99.90;;;;;;4959390;28;20505;-67
2023/10/30 04:56:20;;;;;;;3.53;2.43;;;14.40;99.90;;;;;;4960020;28;20448;-67
2023/10/30 04:58:46;;;;;;;3.90;2.40;;;14.40;99.90;;;;;;4960104;28;20436;-67
2023/10/30 05:01:20;;;;;;;3.00;2.30;;;14.30;99.90;;;;;;4960451;28;20532;-67
2023/10/30 05:03:49;;;;;;;3.97;2.40;;;14.30;99.90;;;;;;4943377;28;20421;-66
2023/10/30 05:06:16;;;;;;;5.30;2.83;;;14.30;99.90;;;;;;4943112;28;20454;-67
2023/10/30 05:08:45;;;;;;;4.80;2.23;;;14.40;99.90;;;;;;4943265;28;20509;-67
2023/10/30 05:11:16;;;;;;;2.80;2.60;;;14.40;99.90;;;;;;4959791;28;20446;-67
2023/10/30 05:13:42;;;;;;;3.67;2.27;;;14.30;99.90;;;;;;4941719;28;20512;-67
2023/10/30 05:16:08;;;;;;;5.70;2.63;;;14.30;99.90;;;;;;4942411;28;20464;-67
2023/10/30 05:18:39;;;;;;;3.07;2.83;;;14.30;99.90;;;;;;4942795;28;20539;-67
2023/10/30 05:21:09;;;;;;;2.40;2.20;;;14.30;99.90;;;;;;4926305;28;20458;-67
2023/10/30 05:23:36;;;;;;;3.23;2.60;;;14.30;99.90;;;;;;4918735;28;20435;-67
2023/10/30 05:26:04;;;;;;;3.40;2.50;;;14.30;99.90;;;;;;5019377;22;20928;-67
2023/10/30 05:28:30;;;;;;;3.50;2.43;;;14.30;99.90;;;;;;4930225;28;21303;-67
2023/10/30 05:30:56;;;;;;;5.10;2.70;;;14.30;99.90;;;;;;4963667;28;20806;-67
2023/10/30 05:33:25;;;;;;;3.37;2.27;;;14.30;99.90;;;;;;4963718;28;21394;-67
2023/10/30 05:35:52;;;;;;;4.67;2.70;;;14.30;99.90;;;;;;4963643;28;20438;-67
2023/10/30 05:38:18;;;;;;;4.87;2.67;;;14.30;99.90;;;;;;4946743;28;20816;-67
2023/10/30 05:40:45;;;;;;;4.87;2.83;;;14.30;99.90;;;;;;4963989;28;20455;-67
2023/10/30 05:43:12;;;;;;;5.10;2.63;;;14.30;99.90;;;;;;4963840;28;20461;-67
2023/10/30 05:45:40;;;;;;;3.20;2.50;;;14.30;99.90;;;;;;4963907;28;20489;-67
2023/10/30 05:48:09;;;;;;;2.50;1.90;;;14.30;99.90;;;;;;4963719;28;20443;-67
2023/10/30 05:50:45;;;;;;;6.30;2.50;;;14.30;99.90;;;;;;4963493;28;21008;-67
2023/10/30 05:53:14;;;;;;;3.70;2.37;;;14.30;99.90;;;;;;4961760;28;20447;-68
2023/10/30 05:55:40;;;;;;;6.07;2.70;;;14.30;99.90;;;;;;4965075;28;20496;-67
2023/10/30 05:58:06;;;;;;;4.13;2.40;;;14.30;99.90;;;;;;4954105;28;21446;-70
2023/10/30 06:00:34;;;;;;;4.60;2.50;;;14.30;99.90;;;;;;4927442;29;20450;-67
2023/10/30 06:03:02;;;;;;;2.50;2.30;;;14.30;99.90;;;;;;4957778;28;20488;-67
2023/10/30 06:05:30;;;;;;;3.90;2.27;;;14.30;99.90;;;;;;4959093;28;20556;-67
2023/10/30 06:07:58;;;;;;;4.00;2.60;;;14.30;99.90;;;;;;4950575;28;20457;-67
2023/10/30 06:10:24;;;;;;;4.63;2.70;;;14.30;99.90;;;;;;4962071;28;20451;-68
2023/10/30 06:12:50;;;;;;;4.07;2.80;;;14.30;99.90;;;;;;4955807;28;20437;-68
2023/10/30 06:15:17;;;;;;;4.27;2.27;;;14.30;99.90;;;;;;4953007;28;21106;-68
2023/10/30 06:17:45;;;;;;;3.10;2.40;;;14.30;99.90;;;;;;4949376;28;20521;-67
2023/10/30 06:20:11;;;;;;;6.10;2.50;;;14.30;99.90;;;;;;4958936;28;20463;-67
2023/10/30 06:22:37;;;;;;;4.60;2.67;;;14.30;99.90;;;;;;4960764;28;20528;-68
2023/10/30 06:25:04;;;;;;;7.07;2.90;;;14.30;99.90;;;;;;4958424;28;20454;-67
2023/10/30 06:27:35;;;;;;;4.30;2.70;;;14.30;99.90;;;;;;4953897;28;20444;-67
2023/10/30 06:30:02;;;;;;;4.90;2.20;;;14.30;99.90;;;;;;4963357;28;20433;-68
2023/10/30 06:32:34;;;;;;;5.90;2.43;;;14.20;99.90;;;;;;4944078;28;20462;-68
2023/10/30 06:35:06;;;;;;;3.57;2.60;;;14.20;99.90;;;;;;4958804;28;21017;-68
2023/10/30 06:37:32;;;;;;;5.10;2.30;;;14.20;99.90;;;;;;4951366;28;20454;-68
2023/10/30 06:39:58;;;;;;;5.00;3.90;;;14.30;99.90;;;;;;4959719;28;20937;-67
2023/10/30 06:42:24;;;;;;;2.93;2.60;;;14.30;99.90;;;;;;4958832;28;20979;-67
2023/10/30 06:44:52;;;;;;;4.20;2.30;;;14.20;99.90;;;;;;4955554;28;21009;-67
2023/10/30 06:47:18;;;;;;;2.50;2.30;;;14.20;99.90;;;;;;4950864;28;20510;-67
2023/10/30 06:49:44;;;;;;;7.87;2.60;;;14.20;99.90;;;;;;4921510;28;20438;-67
2023/10/30 06:52:13;;;;;;;3.77;2.30;;;14.20;99.90;;;;;;4943626;28;20464;-67
2023/10/30 06:54:41;;;;;;;7.50;3.00;;;14.20;99.90;;;;;;4940965;28;20474;-67
2023/10/30 06:57:10;;;;;;;7.20;2.50;;;14.20;99.90;;;;;;4945801;28;20521;-67
2023/10/30 06:59:38;;;;;;;3.60;2.10;;;14.20;99.90;;;;;;4952291;28;21381;-68
2023/10/30 07:02:04;;;;;;;4.23;2.20;;;14.20;99.90;;;;;;4959088;28;20477;-68
2023/10/30 07:04:32;;;;;;;7.17;2.90;;;14.20;99.90;;;;;;4953220;28;20422;-69
2023/10/30 07:06:58;;;;;;;3.73;2.33;;;14.20;99.90;;;;;;4943957;28;20450;-68
2023/10/30 07:09:32;;;;;;;5.27;3.07;;;14.20;99.90;;;;;;4937238;28;20198;-69
2023/10/30 07:11:58;;;;;;;3.67;2.57;;;14.20;99.90;;;;;;4976948;22;20616;-73
2023/10/30 07:14:24;;;;;;;4.50;2.43;;;14.20;99.90;;;;;;4953224;28;20507;-75
2023/10/30 07:16:53;;;;;;;5.10;3.27;;;14.20;99.90;;;;;;4951958;28;20441;-77
2023/10/30 07:19:23;;;;;;;5.97;2.73;;;14.20;99.90;;;;;;4970912;28;21151;-75
2023/10/30 07:21:49;;;;;;;4.20;2.37;;;14.20;99.90;;;;;;4936017;28;20548;-76
2023/10/30 07:24:17;;;;;;;5.13;2.53;;;14.20;99.90;;;;;;4958672;28;20532;-76
2023/10/30 07:26:46;;;;;;;4.83;2.47;;;14.20;99.90;;;;;;4959771;28;20836;-76
2023/10/30 07:29:14;;;;;;;4.50;2.70;;;14.20;99.90;;;;;;4957919;28;21314;-77
2023/10/30 07:31:40;;;;;;;5.87;2.73;;;14.20;99.90;;;;;;4957683;28;20465;-75
2023/10/30 07:34:08;;;;;;;3.93;2.87;;;14.20;99.90;;;;;;4957244;28;20740;-76
2023/10/30 07:36:35;;;;;;;3.93;2.30;;;14.20;99.90;;;;;;4957145;28;20485;-73
2023/10/30 07:39:01;;;;;;;3.40;2.20;;;14.20;99.90;;;;;;4958583;28;20544;-74
2023/10/30 07:41:29;;;;;;;8.30;2.87;;;14.20;99.90;;;;;;4960095;28;21267;-73
2023/10/30 07:43:55;;;;;;;4.90;2.47;;;14.20;99.90;;;;;;4956957;28;20437;-73
2023/10/30 07:46:21;;;;;;;6.70;2.80;;;14.20;99.90;;;;;;4954746;28;20457;-73
2023/10/30 07:48:47;;;;;;;4.90;2.30;;;14.20;99.90;;;;;;4935055;28;21302;-73
2023/10/30 07:51:13;;;;;;;7.13;3.10;;;14.20;99.90;;;;;;4959083;28;20458;-73
2023/10/30 07:53:40;;;;;;;7.97;2.53;;;14.20;99.90;;;;;;4957378;28;20481;-72
2023/10/30 07:56:06;;;;;;;6.90;2.87;;;14.20;99.90;;;;;;4951192;28;20427;-72
2023/10/30 07:58:32;;;;;;;2.97;2.53;;;14.20;99.90;;;;;;4938648;28;20433;-72
2023/10/30 08:00:58;;;;;;;4.50;2.53;;;14.20;99.90;;;;;;4955005;28;20457;-73
2023/10/30 08:03:24;;;;;;;3.63;2.67;;;14.20;99.90;;;;;;4970219;28;21250;-73
2023/10/30 08:05:50;;;;;;;5.37;2.50;;;14.20;99.90;;;;;;4941264;28;20973;-72
2023/10/30 08:08:19;;;;;;;6.33;2.20;;;14.20;99.90;;;;;;4964650;28;20453;-73
2023/10/30 08:10:45;;;;;;;5.03;2.80;;;14.20;99.90;;;;;;4940667;28;20521;-73
2023/10/30 08:13:12;;;;;;;5.30;2.43;;;14.20;99.90;;;;;;4930956;28;20446;-72
2023/10/30 08:15:38;;;;;;;4.20;2.67;;;14.20;99.90;;;;;;4956620;28;20450;-73
2023/10/30 08:18:09;;;;;;;3.07;2.10;;;14.20;99.90;;;;;;4956423;28;20434;-72
2023/10/30 08:20:35;;;;;;;5.10;2.60;;;14.20;99.90;;;;;;4950720;28;20965;-72
2023/10/30 08:23:04;;;;;;;3.57;2.20;;;14.10;99.90;;;;;;4945152;28;20438;-72
2023/10/30 08:25:32;;;;;;;3.87;2.60;;;14.20;99.90;;;;;;4953766;28;20455;-73
2023/10/30 08:28:00;;;;;;;7.23;2.60;;;14.20;99.90;;;;;;4945690;28;20427;-72
2023/10/30 08:30:26;;;;;;;3.87;2.20;;;14.20;99.90;;;;;;4950285;28;20497;-72
2023/10/30 08:32:54;;;;;;;5.20;2.70;;;14.20;99.90;;;;;;4955119;28;21081;-73
2023/10/30 08:35:23;;;;;;;3.30;2.60;;;14.20;99.90;;;;;;4950103;28;20484;-73
2023/10/30 08:37:49;;;;;;;5.10;2.50;;;14.20;99.90;;;;;;4956787;28;20442;-72
2023/10/30 08:40:17;;;;;;;3.60;2.80;;;14.20;99.90;;;;;;4954982;28;20445;-73
2023/10/30 08:42:43;;;;;;;2.90;2.40;;;14.20;99.90;;;;;;4935250;28;20536;-72
2023/10/30 08:45:12;;;;;;;2.90;2.60;;;14.20;99.90;;;;;;4957745;28;20586;-73
2023/10/30 08:47:41;;;;;;;3.93;2.80;;;14.20;99.90;;;;;;4950104;28;20431;-75
2023/10/30 08:50:09;;;;;;;3.60;3.10;;;14.20;99.90;;;;;;4958657;28;20761;-73
2023/10/30 08:52:36;;;;;;;3.80;2.17;;;14.20;99.90;;;;;;4958957;28;20546;-73
2023/10/30 08:55:02;;;;;;;2.73;2.53;;;14.20;99.90;;;;;;4946901;28;20506;-72
2023/10/30 08:57:31;;;;;;;3.60;2.80;;;14.20;99.90;;;;;;4960319;28;20964;-72
2023/10/30 08:59:59;;;;;;;4.33;2.93;;;14.20;99.90;;;;;;4950238;28;20451;-72
2023/10/30 09:02:25;;;;;;;3.67;2.67;;;14.20;99.90;;;;;;4957789;28;20497;-72
2023/10/30 09:04:52;;;;;;;3.90;2.70;;;14.20;99.90;;;;;;4965544;28;20446;-73
2023/10/30 09:07:21;;;;;;;3.60;2.43;;;14.20;99.90;;;;;;4941728;28;20437;-72
2023/10/30 09:09:52;;;;;;;4.47;2.93;;;14.20;99.90;;;;;;4956779;28;20475;-72
2023/10/30 09:12:20;;;;;;;3.77;2.97;;;14.20;99.90;;;;;;4953253;28;20469;-72
2023/10/30 09:14:48;;;;;;;7.40;2.90;;;14.20;99.90;;;;;;4924863;28;20470;-72
2023/10/30 09:17:16;;;;;;;5.67;3.43;;;14.30;99.90;;;;;;4958785;28;20433;-72
2023/10/30 09:19:42;;;;;;;4.20;2.70;;;14.30;99.90;;;;;;4952461;28;20454;-73
2023/10/30 09:22:08;;;;;;;5.90;2.70;;;14.30;99.90;;;;;;4939289;28;20441;-72
2023/10/30 09:24:37;;;;;;;3.80;3.10;;;14.30;99.90;;;;;;4940847;28;20880;-72
2023/10/30 09:27:03;;;;;;;8.60;3.53;;;14.30;99.90;;;;;;4972738;28;20473;-73
2023/10/30 09:29:29;;;;;;;5.27;2.73;;;14.30;99.90;;;;;;4956915;28;20509;-73
2023/10/30 09:31:59;;;;;;;3.43;2.77;;;14.30;99.90;;;;;;4950899;28;20448;-73
2023/10/30 09:34:25;;;;;;;2.97;2.70;;;14.30;99.90;;;;;;4941245;28;20503;-73
2023/10/30 09:36:51;;;;;;;5.70;3.10;;;14.30;99.90;;;;;;4957583;28;20773;-73
2023/10/30 09:39:17;;;;;;;4.43;2.50;;;14.30;99.90;;;;;;4947368;28;20436;-73
2023/10/30 09:41:45;;;;;;;3.60;2.60;;;14.30;99.90;;;;;;4956941;28;20982;-73
2023/10/30 09:44:18;;;;;;;3.93;2.80;;;14.30;99.90;;;;;;4951006;28;20635;-73
2023/10/30 09:46:46;;;;;;;3.67;2.47;;;14.30;99.90;;;;;;4937837;28;20459;-74
2023/10/30 09:49:16;;;;;;;2.40;2.20;;;14.30;99.90;;;;;;4947169;28;20430;-73
2023/10/30 09:51:45;;;;;;;2.90;2.53;;;14.30;99.90;;;;;;4956908;28;20460;-72
2023/10/30 09:54:12;;;;;;;2.77;2.57;;;14.30;99.90;;;;;;4940168;28;20486;-73
2023/10/30 09:56:40;;;;;;;2.90;2.50;;;14.40;99.90;;;;;;4929758;29;20460;-72
2023/10/30 09:59:09;;;;;;;4.13;2.80;;;14.30;99.90;;;;;;4919317;29;20439;-72
2023/10/30 10:01:36;;;;;;;2.40;2.20;;;14.40;99.90;;;;;;4950175;28;20500;-73
2023/10/30 10:04:02;;;;;;;3.63;2.40;;;14.40;99.90;;;;;;4957299;28;20442;-73
2023/10/30 10:06:31;;;;;;;2.87;2.60;;;14.40;99.90;;;;;;4958801;28;20436;-72
2023/10/30 10:08:58;;;;;;;3.00;2.80;;;14.40;99.90;;;;;;4965221;28;20450;-73
2023/10/30 10:11:32;;;;;;;2.80;2.60;;;14.40;99.90;;;;;;4952868;28;20551;-73
2023/10/30 10:13:58;;;;;;;6.53;2.87;;;14.40;99.90;;;;;;4959265;28;20891;-73
2023/10/30 10:16:31;;;;;;;4.80;2.73;;;14.40;99.90;;;;;;4952499;28;20442;-73
2023/10/30 10:18:57;;;;;;;4.33;2.50;;;14.40;99.90;;;;;;4933045;28;20569;-73
2023/10/30 10:21:29;;;;;;;7.70;2.97;;;14.40;99.90;;;;;;4953477;28;20493;-73
2023/10/30 10:24:01;;;;;;;2.83;2.63;;;14.40;99.90;;;;;;4946831;28;20462;-72
2023/10/30 10:26:29;;;;;;;2.97;2.77;;;14.40;99.90;;;;;;4946722;28;20449;-73
2023/10/30 10:28:58;;;;;;;2.73;2.53;;;14.40;99.90;;;;;;4943441;28;20444;-73
2023/10/30 10:31:26;;;;;;;3.73;2.50;;;14.40;99.90;;;;;;4961514;28;20485;-73
2023/10/30 10:33:53;;;;;;;4.53;3.00;;;14.50;99.90;;;;;;4940874;28;20915;-73
2023/10/30 10:36:21;;;;;;;3.70;2.63;;;14.40;99.90;;;;;;4952702;28;20423;-72
2023/10/30 10:38:59;;;;;;;2.43;2.20;;;14.50;99.90;;;;;;4946468;28;20927;-73
2023/10/30 10:41:26;;;;;;;4.53;2.30;;;14.50;99.90;;;;;;4963703;28;20479;-74
2023/10/30 10:43:53;;;;;;;3.87;2.50;;;14.50;99.90;;;;;;4945197;28;21111;-74
2023/10/30 10:46:21;;;;;;;2.80;2.37;;;14.50;99.90;;;;;;4943864;28;21338;-73
2023/10/30 10:48:48;;;;;;;2.63;2.40;;;14.50;99.90;;;;;;4959773;28;20453;-71
2023/10/30 10:51:16;;;;;;;3.60;2.57;;;14.50;99.90;;;;;;4960441;28;20449;-72
2023/10/30 10:53:45;;;;;;;4.20;2.40;;;14.50;99.90;;;;;;4948870;28;20485;-72
2023/10/30 10:56:12;;;;;;;2.50;2.30;;;14.50;99.90;;;;;;4950220;28;20427;-72
2023/10/30 10:58:40;;;;;;;4.83;2.90;;;14.50;99.90;;;;;;4955470;28;20942;-72
2023/10/30 11:01:08;;;;;;;3.43;2.40;;;14.50;99.90;;;;;;4942924;28;20838;-72
2023/10/30 11:03:36;;;;;;;2.90;2.60;;;14.50;99.90;;;;;;4927528;28;20861;-72
2023/10/30 11:06:06;;;;;;;2.83;2.50;;;14.50;99.90;;;;;;4943631;28;20550;-71
2023/10/30 11:08:49;;;;;;;9.37;2.57;;;14.60;99.90;;;;;;4942863;28;20474;-77
2023/10/30 11:11:40;;;;;;;3.27;2.07;;;14.60;99.90;;;;;;4958399;28;21399;-74
2023/10/30 11:14:42;;;;;;;2.90;2.60;;;14.60;99.90;;;;;;4956790;28;20483;-73
2023/10/30 11:17:10;;;;;;;2.90;2.20;;;14.60;99.90;;;;;;4953317;28;20800;-72
2023/10/30 11:19:38;;;;;;;3.43;2.50;;;14.60;99.90;;;;;;4965521;28;20419;-73
2023/10/30 11:22:04;;;;;;;2.80;2.60;;;14.60;99.90;;;;;;4924995;28;20446;-72
2023/10/30 11:24:39;;;;;;;4.37;2.50;;;14.60;99.90;;;;;;5045005;22;20511;-77
2023/10/30 11:27:25;;;;;;;3.27;2.40;;;14.60;99.90;;;;;;4976880;28;20932;-74
2023/10/30 11:29:53;;;;;;;2.90;2.00;;;14.70;99.90;;;;;;4955756;28;20511;-74
2023/10/30 11:32:20;;;;;;;4.03;3.23;;;14.70;99.90;;;;;;4967962;28;20448;-72
2023/10/30 11:34:48;;;;;;;3.50;3.20;;;14.70;99.90;;;;;;4974705;28;20476;-72
2023/10/30 11:37:21;;;;;;;2.50;2.17;;;14.70;99.90;;;;;;4957085;28;20450;-72
2023/10/30 11:39:50;;;;;;;3.43;2.50;;;14.70;99.90;;;;;;4955887;28;20515;-72
2023/10/30 11:42:22;;;;;;;3.10;2.37;;;14.80;99.90;;;;;;4976403;28;20451;-72
2023/10/30 11:44:52;;;;;;;2.77;2.37;;;14.70;99.90;;;;;;4977135;28;20429;-72
2023/10/30 11:47:29;;;;;;;2.80;2.40;;;14.70;99.90;;;;;;4937135;28;20796;-72
2023/10/30 11:49:58;;;;;;;2.90;2.50;;;14.70;99.90;;;;;;4974378;28;20442;-72
2023/10/30 11:52:24;;;;;;;3.90;2.40;;;14.80;99.90;;;;;;4959214;28;20981;-72
2023/10/30 11:54:50;;;;;;;4.90;2.57;;;14.70;99.90;;;;;;4959633;28;20869;-72
2023/10/30 11:57:17;;;;;;;2.90;2.33;;;14.80;99.90;;;;;;4975679;28;20454;-72
2023/10/30 11:59:45;;;;;;;2.93;2.60;;;14.80;99.90;;;;;;4977437;28;20512;-72
2023/10/30 12:02:16;;;;;;;2.47;2.27;;;14.80;99.90;;;;;;4959741;28;20449;-72
2023/10/30 12:04:45;;;;;;;3.07;2.77;;;14.80;99.90;;;;;;4974515;28;20449;-72
2023/10/30 12:07:14;;;;;;;2.67;2.57;;;14.80;99.90;;;;;;4959551;28;20523;-72
2023/10/30 12:09:42;;;;;;;2.53;2.33;;;14.80;99.90;;;;;;4975310;28;20757;-72
2023/10/30 12:12:11;;;;;;;3.57;2.60;;;14.80;99.90;;;;;;4970266;28;20496;-71
2023/10/30 12:14:38;;;;;;;5.10;2.50;;;14.80;99.90;;;;;;4975630;28;20475;-72
2023/10/30 12:17:04;;;;;;;3.67;2.77;;;14.80;99.90;;;;;;4975586;28;20737;-72
2023/10/30 12:19:55;;;;;;;2.30;2.10;;;14.90;99.90;;;;;;4959845;28;20521;-72
2023/10/30 12:22:22;;;;;;;3.37;2.73;;;14.90;99.90;;;;;;4973686;28;20490;-73
2023/10/30 12:24:50;;;;;;;2.43;2.23;;;14.90;99.90;;;;;;4975041;28;20438;-71
2023/10/30 12:27:20;;;;;;;3.07;2.23;;;14.80;99.90;;;;;;4975545;28;20435;-72
2023/10/30 12:29:47;;;;;;;2.70;2.50;;;14.90;99.90;;;;;;4972559;28;20948;-72
2023/10/30 12:32:13;;;;;;;2.80;2.60;;;14.90;99.90;;;;;;4959411;28;20457;-72
2023/10/30 12:34:39;;;;;;;2.43;2.20;;;14.90;99.90;;;;;;4951103;28;20469;-72
2023/10/30 12:37:18;;;;;;;2.60;2.40;;;14.90;99.90;;;;;;4976775;28;20429;-72
2023/10/30 12:40:03;;;;;;;4.17;2.17;;;14.90;99.90;;;;;;4978304;28;20524;-71
2023/10/30 12:42:34;;;;;;;3.10;2.80;;;14.90;99.90;;;;;;4978340;28;20599;-72
2023/10/30 12:45:14;;;;;;;2.53;2.30;;;14.90;99.90;;;;;;4976084;28;20452;-71
2023/10/30 12:47:42;;;;;;;2.37;2.03;;;14.90;99.90;;;;;;4964824;28;20540;-71
2023/10/30 12:50:10;;;;;;;2.50;2.20;;;14.90;99.90;;;;;;4986801;28;20491;-71
2023/10/30 12:52:37;;;;;;;2.93;2.20;;;14.90;99.90;;;;;;4945443;28;20446;-72